Port Henry, New York
Current Conditions -  °F | °C
As of 8:35 PM on Thursday 27 Nov 2014 (Local Time) from K6B0 Reporting Station
Overcast Overcast  
Wind Chill: 22°   Ceiling: 2900
Heat Index: 28°   Visibility: 10mi
Dew Point: 21°   Wind: 6mph
Humidity: 74%   Direction: 350°N
Pressure: 30.02"   Gusts: NA
Location:  44.05°N, 73.46°W
Report Text: K6B0 280135Z AUTO 35005KT 10SM OVC029 M02/M06 A3002 RMK AO2 T10221063
Loading
Personal Weather Stations






























Interactive Weather Map New forecast layout! Learn more

10-Day Weather Forecast

Advertisements
Track Severe Weather on mobile